sensor_id;sensor_type;location;lat;lon;timestamp;P1;durP1;ratioP1;P2;durP2;ratioP2
4021;SDS011;2025;48.260;16.432;2022-12-07T00:01:26;13.80;;;8.25;;
4021;SDS011;2025;48.260;16.432;2022-12-07T00:03:56;11.82;;;7.95;;
4021;SDS011;2025;48.260;16.432;2022-12-07T00:06:29;15.13;;;8.73;;
4021;SDS011;2025;48.260;16.432;2022-12-07T00:08:57;13.15;;;7.93;;
4021;SDS011;2025;48.260;16.432;2022-12-07T00:11:24;12.27;;;6.65;;
4021;SDS011;2025;48.260;16.432;2022-12-07T00:13:52;11.40;;;6.65;;
4021;SDS011;2025;48.260;16.432;2022-12-07T00:16:20;13.35;;;8.18;;
4021;SDS011;2025;48.260;16.432;2022-12-07T00:18:49;10.25;;;6.75;;
4021;SDS011;2025;48.260;16.432;2022-12-07T00:21:18;11.55;;;7.07;;
4021;SDS011;2025;48.260;16.432;2022-12-07T00:23:46;11.52;;;6.20;;
4021;SDS011;2025;48.260;16.432;2022-12-07T00:26:15;12.68;;;7.00;;
4021;SDS011;2025;48.260;16.432;2022-12-07T00:28:44;11.38;;;7.28;;
4021;SDS011;2025;48.260;16.432;2022-12-07T00:31:12;12.80;;;7.53;;
4021;SDS011;2025;48.260;16.432;2022-12-07T00:33:40;11.25;;;5.93;;
4021;SDS011;2025;48.260;16.432;2022-12-07T00:36:07;12.38;;;7.07;;
4021;SDS011;2025;48.260;16.432;2022-12-07T00:38:38;12.00;;;7.43;;
4021;SDS011;2025;48.260;16.432;2022-12-07T00:41:06;13.38;;;7.13;;
4021;SDS011;2025;48.260;16.432;2022-12-07T00:43:34;14.10;;;7.68;;
4021;SDS011;2025;48.260;16.432;2022-12-07T00:46:01;12.40;;;7.20;;
4021;SDS011;2025;48.260;16.432;2022-12-07T00:48:28;14.27;;;7.78;;
4021;SDS011;2025;48.260;16.432;2022-12-07T00:50:55;12.18;;;7.13;;
4021;SDS011;2025;48.260;16.432;2022-12-07T00:53:22;13.98;;;7.78;;
4021;SDS011;2025;48.260;16.432;2022-12-07T00:55:50;13.52;;;7.72;;
4021;SDS011;2025;48.260;16.432;2022-12-07T00:58:18;12.63;;;7.95;;
4021;SDS011;2025;48.260;16.432;2022-12-07T01:00:46;12.30;;;7.70;;
4021;SDS011;2025;48.260;16.432;2022-12-07T01:03:13;12.85;;;7.55;;
4021;SDS011;2025;48.260;16.432;2022-12-07T01:05:48;13.60;;;7.05;;
4021;SDS011;2025;48.260;16.432;2022-12-07T01:08:16;14.85;;;7.93;;
4021;SDS011;2025;48.260;16.432;2022-12-07T01:10:43;14.63;;;7.38;;
4021;SDS011;2025;48.260;16.432;2022-12-07T01:13:11;13.50;;;7.75;;
4021;SDS011;2025;48.260;16.432;2022-12-07T01:15:39;14.45;;;7.60;;
4021;SDS011;2025;48.260;16.432;2022-12-07T01:18:06;13.93;;;7.47;;
4021;SDS011;2025;48.260;16.432;2022-12-07T01:20:33;14.18;;;7.03;;
4021;SDS011;2025;48.260;16.432;2022-12-07T01:23:00;13.63;;;8.55;;
4021;SDS011;2025;48.260;16.432;2022-12-07T01:25:27;13.60;;;8.52;;
4021;SDS011;2025;48.260;16.432;2022-12-07T01:27:54;13.80;;;7.85;;
4021;SDS011;2025;48.260;16.432;2022-12-07T01:30:22;11.85;;;5.70;;
4021;SDS011;2025;48.260;16.432;2022-12-07T01:32:49;12.95;;;9.18;;
4021;SDS011;2025;48.260;16.432;2022-12-07T01:35:16;16.65;;;7.70;;
4021;SDS011;2025;48.260;16.432;2022-12-07T01:37:43;14.77;;;6.32;;
4021;SDS011;2025;48.260;16.432;2022-12-07T01:40:10;15.77;;;7.95;;
4021;SDS011;2025;48.260;16.432;2022-12-07T01:42:38;13.13;;;8.60;;
4021;SDS011;2025;48.260;16.432;2022-12-07T01:45:25;15.63;;;8.98;;
4021;SDS011;2025;48.260;16.432;2022-12-07T01:48:05;14.13;;;8.02;;
4021;SDS011;2025;48.260;16.432;2022-12-07T01:50:35;14.60;;;8.48;;
4021;SDS011;2025;48.260;16.432;2022-12-07T01:53:05;14.57;;;7.78;;
4021;SDS011;2025;48.260;16.432;2022-12-07T01:55:36;12.95;;;7.53;;
4021;SDS011;2025;48.260;16.432;2022-12-07T01:58:07;14.43;;;8.00;;
4021;SDS011;2025;48.260;16.432;2022-12-07T02:00:34;14.02;;;7.53;;
4021;SDS011;2025;48.260;16.432;2022-12-07T02:03:03;13.98;;;7.65;;
4021;SDS011;2025;48.260;16.432;2022-12-07T02:05:35;16.33;;;9.70;;
4021;SDS011;2025;48.260;16.432;2022-12-07T02:08:04;14.48;;;8.63;;
4021;SDS011;2025;48.260;16.432;2022-12-07T02:10:32;16.15;;;10.13;;
4021;SDS011;2025;48.260;16.432;2022-12-07T02:13:00;14.82;;;8.70;;
4021;SDS011;2025;48.260;16.432;2022-12-07T02:15:33;15.88;;;7.90;;
4021;SDS011;2025;48.260;16.432;2022-12-07T02:18:12;15.00;;;8.55;;
4021;SDS011;2025;48.260;16.432;2022-12-07T02:20:48;15.25;;;7.93;;
4021;SDS011;2025;48.260;16.432;2022-12-07T02:26:39;19.63;;;10.40;;
4021;SDS011;2025;48.260;16.432;2022-12-07T02:29:22;12.77;;;8.45;;
4021;SDS011;2025;48.260;16.432;2022-12-07T02:31:53;14.55;;;8.98;;
4021;SDS011;2025;48.260;16.432;2022-12-07T02:34:28;14.27;;;6.65;;
4021;SDS011;2025;48.260;16.432;2022-12-07T02:37:03;12.93;;;7.35;;
4021;SDS011;2025;48.260;16.432;2022-12-07T02:39:39;15.13;;;7.82;;
4021;SDS011;2025;48.260;16.432;2022-12-07T02:42:10;14.25;;;8.45;;
4021;SDS011;2025;48.260;16.432;2022-12-07T02:44:43;14.10;;;8.73;;
4021;SDS011;2025;48.260;16.432;2022-12-07T02:47:12;14.50;;;9.20;;
4021;SDS011;2025;48.260;16.432;2022-12-07T02:49:42;15.07;;;8.25;;
4021;SDS011;2025;48.260;16.432;2022-12-07T02:52:10;15.98;;;8.63;;
4021;SDS011;2025;48.260;16.432;2022-12-07T02:54:37;13.75;;;7.47;;
4021;SDS011;2025;48.260;16.432;2022-12-07T02:57:07;13.95;;;8.60;;
4021;SDS011;2025;48.260;16.432;2022-12-07T02:59:50;14.48;;;7.80;;
4021;SDS011;2025;48.260;16.432;2022-12-07T03:02:28;14.57;;;8.57;;
4021;SDS011;2025;48.260;16.432;2022-12-07T03:05:07;13.95;;;7.28;;
4021;SDS011;2025;48.260;16.432;2022-12-07T03:07:59;13.35;;;8.13;;
4021;SDS011;2025;48.260;16.432;2022-12-07T03:10:32;14.90;;;9.05;;
4021;SDS011;2025;48.260;16.432;2022-12-07T03:13:07;15.68;;;8.38;;
4021;SDS011;2025;48.260;16.432;2022-12-07T03:15:40;14.73;;;7.60;;
4021;SDS011;2025;48.260;16.432;2022-12-07T03:18:15;15.68;;;6.95;;
4021;SDS011;2025;48.260;16.432;2022-12-07T03:20:44;13.20;;;7.78;;
4021;SDS011;2025;48.260;16.432;2022-12-07T03:23:14;17.17;;;7.43;;
4021;SDS011;2025;48.260;16.432;2022-12-07T03:25:45;14.18;;;8.50;;
4021;SDS011;2025;48.260;16.432;2022-12-07T03:28:16;13.55;;;8.02;;
4021;SDS011;2025;48.260;16.432;2022-12-07T03:30:49;13.55;;;7.53;;
4021;SDS011;2025;48.260;16.432;2022-12-07T03:33:22;14.82;;;6.15;;
4021;SDS011;2025;48.260;16.432;2022-12-07T03:35:56;12.23;;;8.00;;
4021;SDS011;2025;48.260;16.432;2022-12-07T03:38:28;13.73;;;5.28;;
4021;SDS011;2025;48.260;16.432;2022-12-07T03:41:04;14.63;;;7.57;;
4021;SDS011;2025;48.260;16.432;2022-12-07T03:43:35;12.20;;;8.27;;
4021;SDS011;2025;48.260;16.432;2022-12-07T03:46:08;13.60;;;8.00;;
4021;SDS011;2025;48.260;16.432;2022-12-07T03:48:46;15.73;;;7.72;;
4021;SDS011;2025;48.260;16.432;2022-12-07T03:51:22;14.75;;;7.50;;
4021;SDS011;2025;48.260;16.432;2022-12-07T03:53:57;13.05;;;7.45;;
4021;SDS011;2025;48.260;16.432;2022-12-07T03:56:29;15.20;;;8.18;;
4021;SDS011;2025;48.260;16.432;2022-12-07T03:58:56;16.10;;;7.82;;
4021;SDS011;2025;48.260;16.432;2022-12-07T04:01:24;13.50;;;7.45;;
4021;SDS011;2025;48.260;16.432;2022-12-07T04:03:51;13.43;;;7.18;;
4021;SDS011;2025;48.260;16.432;2022-12-07T04:06:18;14.60;;;7.68;;
4021;SDS011;2025;48.260;16.432;2022-12-07T04:08:45;14.20;;;7.60;;
4021;SDS011;2025;48.260;16.432;2022-12-07T04:11:12;13.45;;;6.65;;
4021;SDS011;2025;48.260;16.432;2022-12-07T04:13:39;14.23;;;7.00;;
4021;SDS011;2025;48.260;16.432;2022-12-07T04:16:25;13.27;;;5.15;;
4021;SDS011;2025;48.260;16.432;2022-12-07T04:18:52;13.60;;;7.22;;
4021;SDS011;2025;48.260;16.432;2022-12-07T04:21:19;15.00;;;8.02;;
4021;SDS011;2025;48.260;16.432;2022-12-07T04:23:45;14.32;;;7.55;;
4021;SDS011;2025;48.260;16.432;2022-12-07T04:26:12;12.85;;;7.00;;
4021;SDS011;2025;48.260;16.432;2022-12-07T04:28:39;14.43;;;7.32;;
4021;SDS011;2025;48.260;16.432;2022-12-07T04:31:06;14.25;;;7.65;;
4021;SDS011;2025;48.260;16.432;2022-12-07T04:33:35;12.60;;;8.30;;
4021;SDS011;2025;48.260;16.432;2022-12-07T04:36:01;13.35;;;7.05;;
4021;SDS011;2025;48.260;16.432;2022-12-07T04:38:28;13.80;;;8.02;;
4021;SDS011;2025;48.260;16.432;2022-12-07T04:40:55;13.90;;;5.65;;
4021;SDS011;2025;48.260;16.432;2022-12-07T04:43:22;13.15;;;7.07;;
4021;SDS011;2025;48.260;16.432;2022-12-07T04:45:49;12.60;;;6.95;;
4021;SDS011;2025;48.260;16.432;2022-12-07T04:48:16;14.27;;;7.85;;
4021;SDS011;2025;48.260;16.432;2022-12-07T04:50:47;12.48;;;7.25;;
4021;SDS011;2025;48.260;16.432;2022-12-07T04:53:14;13.80;;;6.97;;
4021;SDS011;2025;48.260;16.432;2022-12-07T04:55:41;14.00;;;8.10;;
4021;SDS011;2025;48.260;16.432;2022-12-07T04:58:09;11.27;;;6.80;;
4021;SDS011;2025;48.260;16.432;2022-12-07T05:00:36;14.13;;;7.35;;
4021;SDS011;2025;48.260;16.432;2022-12-07T05:03:02;11.85;;;7.15;;
4021;SDS011;2025;48.260;16.432;2022-12-07T05:05:30;13.68;;;6.80;;
4021;SDS011;2025;48.260;16.432;2022-12-07T05:07:58;13.55;;;7.13;;
4021;SDS011;2025;48.260;16.432;2022-12-07T05:10:25;13.68;;;6.68;;
4021;SDS011;2025;48.260;16.432;2022-12-07T05:12:52;11.63;;;6.32;;
4021;SDS011;2025;48.260;16.432;2022-12-07T05:15:19;12.70;;;7.22;;
4021;SDS011;2025;48.260;16.432;2022-12-07T05:17:46;11.70;;;6.28;;
4021;SDS011;2025;48.260;16.432;2022-12-07T05:20:13;12.68;;;7.97;;
4021;SDS011;2025;48.260;16.432;2022-12-07T05:22:40;11.80;;;6.60;;
4021;SDS011;2025;48.260;16.432;2022-12-07T05:25:08;13.23;;;6.65;;
4021;SDS011;2025;48.260;16.432;2022-12-07T05:27:35;12.02;;;6.90;;
4021;SDS011;2025;48.260;16.432;2022-12-07T05:30:02;13.85;;;7.25;;
4021;SDS011;2025;48.260;16.432;2022-12-07T05:32:30;12.43;;;6.18;;
4021;SDS011;2025;48.260;16.432;2022-12-07T05:34:57;12.63;;;4.50;;
4021;SDS011;2025;48.260;16.432;2022-12-07T05:37:24;13.50;;;7.22;;
4021;SDS011;2025;48.260;16.432;2022-12-07T05:39:51;12.60;;;7.05;;
4021;SDS011;2025;48.260;16.432;2022-12-07T05:42:19;10.70;;;5.72;;
4021;SDS011;2025;48.260;16.432;2022-12-07T05:44:46;13.43;;;7.38;;
4021;SDS011;2025;48.260;16.432;2022-12-07T05:47:14;11.52;;;6.45;;
4021;SDS011;2025;48.260;16.432;2022-12-07T05:49:41;12.65;;;7.18;;
4021;SDS011;2025;48.260;16.432;2022-12-07T05:52:08;13.40;;;7.00;;
4021;SDS011;2025;48.260;16.432;2022-12-07T05:54:36;10.32;;;6.50;;
4021;SDS011;2025;48.260;16.432;2022-12-07T05:57:02;11.05;;;6.68;;
4021;SDS011;2025;48.260;16.432;2022-12-07T05:59:31;11.48;;;6.05;;
4021;SDS011;2025;48.260;16.432;2022-12-07T06:01:57;10.93;;;6.28;;
4021;SDS011;2025;48.260;16.432;2022-12-07T06:04:26;11.13;;;6.38;;
4021;SDS011;2025;48.260;16.432;2022-12-07T06:06:54;11.00;;;5.90;;
4021;SDS011;2025;48.260;16.432;2022-12-07T06:09:22;13.63;;;9.20;;
4021;SDS011;2025;48.260;16.432;2022-12-07T06:11:49;11.52;;;6.22;;
4021;SDS011;2025;48.260;16.432;2022-12-07T06:14:35;12.45;;;6.10;;
4021;SDS011;2025;48.260;16.432;2022-12-07T06:17:02;13.20;;;5.65;;
4021;SDS011;2025;48.260;16.432;2022-12-07T06:19:29;12.50;;;6.90;;
4021;SDS011;2025;48.260;16.432;2022-12-07T06:21:57;10.73;;;5.65;;
4021;SDS011;2025;48.260;16.432;2022-12-07T06:24:24;13.00;;;6.03;;
4021;SDS011;2025;48.260;16.432;2022-12-07T06:26:51;11.48;;;6.22;;
4021;SDS011;2025;48.260;16.432;2022-12-07T06:29:18;10.82;;;6.00;;
4021;SDS011;2025;48.260;16.432;2022-12-07T06:31:47;10.30;;;6.40;;
4021;SDS011;2025;48.260;16.432;2022-12-07T06:34:14;11.73;;;5.70;;
4021;SDS011;2025;48.260;16.432;2022-12-07T06:36:43;11.45;;;6.13;;
4021;SDS011;2025;48.260;16.432;2022-12-07T06:39:11;10.00;;;5.60;;
4021;SDS011;2025;48.260;16.432;2022-12-07T06:41:38;10.38;;;6.97;;
4021;SDS011;2025;48.260;16.432;2022-12-07T06:44:06;8.43;;;5.90;;
4021;SDS011;2025;48.260;16.432;2022-12-07T06:46:33;12.65;;;5.85;;
4021;SDS011;2025;48.260;16.432;2022-12-07T06:49:03;9.20;;;4.88;;
4021;SDS011;2025;48.260;16.432;2022-12-07T06:51:30;10.38;;;5.45;;
4021;SDS011;2025;48.260;16.432;2022-12-07T06:53:58;11.93;;;6.20;;
4021;SDS011;2025;48.260;16.432;2022-12-07T06:56:25;11.57;;;4.55;;
4021;SDS011;2025;48.260;16.432;2022-12-07T06:58:52;11.25;;;5.53;;
4021;SDS011;2025;48.260;16.432;2022-12-07T07:01:19;9.88;;;4.93;;
4021;SDS011;2025;48.260;16.432;2022-12-07T07:03:46;9.68;;;5.30;;
4021;SDS011;2025;48.260;16.432;2022-12-07T07:06:15;12.13;;;5.70;;
4021;SDS011;2025;48.260;16.432;2022-12-07T07:08:42;12.25;;;5.65;;
4021;SDS011;2025;48.260;16.432;2022-12-07T07:11:09;9.40;;;4.70;;
4021;SDS011;2025;48.260;16.432;2022-12-07T07:13:36;11.32;;;4.85;;
4021;SDS011;2025;48.260;16.432;2022-12-07T07:16:04;8.32;;;5.45;;
4021;SDS011;2025;48.260;16.432;2022-12-07T07:18:31;8.15;;;4.88;;
4021;SDS011;2025;48.260;16.432;2022-12-07T07:20:58;9.20;;;6.25;;
4021;SDS011;2025;48.260;16.432;2022-12-07T07:23:27;8.77;;;4.88;;
4021;SDS011;2025;48.260;16.432;2022-12-07T07:25:54;9.68;;;5.57;;
4021;SDS011;2025;48.260;16.432;2022-12-07T07:28:21;9.25;;;5.38;;
4021;SDS011;2025;48.260;16.432;2022-12-07T07:30:48;8.25;;;3.17;;
4021;SDS011;2025;48.260;16.432;2022-12-07T07:33:15;9.57;;;4.68;;
4021;SDS011;2025;48.260;16.432;2022-12-07T07:35:42;7.80;;;4.45;;
4021;SDS011;2025;48.260;16.432;2022-12-07T07:38:09;10.00;;;5.30;;
4021;SDS011;2025;48.260;16.432;2022-12-07T07:40:37;10.20;;;4.88;;
4021;SDS011;2025;48.260;16.432;2022-12-07T07:43:04;8.45;;;4.18;;
4021;SDS011;2025;48.260;16.432;2022-12-07T07:45:31;9.15;;;4.47;;
4021;SDS011;2025;48.260;16.432;2022-12-07T07:47:58;7.47;;;4.15;;
4021;SDS011;2025;48.260;16.432;2022-12-07T07:50:25;10.57;;;5.72;;
4021;SDS011;2025;48.260;16.432;2022-12-07T07:52:52;7.47;;;3.97;;
4021;SDS011;2025;48.260;16.432;2022-12-07T07:55:19;8.68;;;4.55;;
4021;SDS011;2025;48.260;16.432;2022-12-07T07:57:47;9.18;;;3.97;;
4021;SDS011;2025;48.260;16.432;2022-12-07T08:00:14;7.22;;;5.18;;
4021;SDS011;2025;48.260;16.432;2022-12-07T08:02:42;7.93;;;4.18;;
4021;SDS011;2025;48.260;16.432;2022-12-07T08:05:11;8.70;;;4.90;;
4021;SDS011;2025;48.260;16.432;2022-12-07T08:07:39;8.77;;;4.93;;
4021;SDS011;2025;48.260;16.432;2022-12-07T08:10:07;7.75;;;4.88;;
4021;SDS011;2025;48.260;16.432;2022-12-07T08:12:36;8.60;;;4.57;;
4021;SDS011;2025;48.260;16.432;2022-12-07T08:15:25;8.45;;;4.50;;
4021;SDS011;2025;48.260;16.432;2022-12-07T08:17:53;9.57;;;5.05;;
4021;SDS011;2025;48.260;16.432;2022-12-07T08:20:20;9.45;;;5.68;;
4021;SDS011;2025;48.260;16.432;2022-12-07T08:22:48;7.93;;;4.15;;
4021;SDS011;2025;48.260;16.432;2022-12-07T08:25:15;9.32;;;5.30;;
4021;SDS011;2025;48.260;16.432;2022-12-07T08:27:42;8.40;;;4.50;;
4021;SDS011;2025;48.260;16.432;2022-12-07T08:30:09;9.13;;;6.13;;
4021;SDS011;2025;48.260;16.432;2022-12-07T08:32:37;10.02;;;4.68;;
4021;SDS011;2025;48.260;16.432;2022-12-07T08:35:05;8.77;;;4.95;;
4021;SDS011;2025;48.260;16.432;2022-12-07T08:37:34;8.95;;;4.60;;
4021;SDS011;2025;48.260;16.432;2022-12-07T08:40:01;8.57;;;4.50;;
4021;SDS011;2025;48.260;16.432;2022-12-07T08:42:29;7.97;;;5.13;;
4021;SDS011;2025;48.260;16.432;2022-12-07T08:45:03;7.65;;;4.97;;
4021;SDS011;2025;48.260;16.432;2022-12-07T08:47:31;6.95;;;3.70;;
4021;SDS011;2025;48.260;16.432;2022-12-07T08:50:00;7.47;;;4.45;;
4021;SDS011;2025;48.260;16.432;2022-12-07T08:52:29;7.43;;;4.53;;
4021;SDS011;2025;48.260;16.432;2022-12-07T08:54:56;7.25;;;4.45;;
4021;SDS011;2025;48.260;16.432;2022-12-07T08:57:25;7.78;;;4.68;;
4021;SDS011;2025;48.260;16.432;2022-12-07T08:59:52;7.22;;;4.32;;
4021;SDS011;2025;48.260;16.432;2022-12-07T09:02:20;7.53;;;4.20;;
4021;SDS011;2025;48.260;16.432;2022-12-07T09:04:46;8.88;;;4.50;;
4021;SDS011;2025;48.260;16.432;2022-12-07T09:07:15;7.03;;;2.78;;
4021;SDS011;2025;48.260;16.432;2022-12-07T09:09:42;7.28;;;3.75;;
4021;SDS011;2025;48.260;16.432;2022-12-07T09:12:09;8.45;;;5.53;;
4021;SDS011;2025;48.260;16.432;2022-12-07T09:14:36;6.15;;;3.70;;
4021;SDS011;2025;48.260;16.432;2022-12-07T09:17:06;6.72;;;3.58;;
4021;SDS011;2025;48.260;16.432;2022-12-07T09:19:34;8.50;;;4.88;;
4021;SDS011;2025;48.260;16.432;2022-12-07T09:22:01;10.07;;;5.25;;
4021;SDS011;2025;48.260;16.432;2022-12-07T09:24:31;8.35;;;5.50;;
4021;SDS011;2025;48.260;16.432;2022-12-07T09:26:58;7.40;;;4.72;;
4021;SDS011;2025;48.260;16.432;2022-12-07T09:29:25;6.65;;;4.07;;
4021;SDS011;2025;48.260;16.432;2022-12-07T09:31:52;10.18;;;4.28;;
4021;SDS011;2025;48.260;16.432;2022-12-07T09:34:19;7.90;;;4.60;;
4021;SDS011;2025;48.260;16.432;2022-12-07T09:36:46;7.63;;;3.85;;
4021;SDS011;2025;48.260;16.432;2022-12-07T09:39:13;6.75;;;4.03;;
4021;SDS011;2025;48.260;16.432;2022-12-07T09:41:42;6.20;;;3.78;;
4021;SDS011;2025;48.260;16.432;2022-12-07T09:44:11;6.65;;;4.15;;
4021;SDS011;2025;48.260;16.432;2022-12-07T09:46:40;7.05;;;3.72;;
4021;SDS011;2025;48.260;16.432;2022-12-07T09:49:10;8.50;;;4.93;;
4021;SDS011;2025;48.260;16.432;2022-12-07T09:51:40;7.35;;;4.50;;
4021;SDS011;2025;48.260;16.432;2022-12-07T09:54:08;6.10;;;3.53;;
4021;SDS011;2025;48.260;16.432;2022-12-07T09:56:38;6.70;;;3.83;;
4021;SDS011;2025;48.260;16.432;2022-12-07T09:59:09;10.18;;;3.97;;
4021;SDS011;2025;48.260;16.432;2022-12-07T10:01:41;8.98;;;4.55;;
4021;SDS011;2025;48.260;16.432;2022-12-07T10:04:09;6.88;;;4.05;;
4021;SDS011;2025;48.260;16.432;2022-12-07T10:06:40;5.75;;;4.32;;
4021;SDS011;2025;48.260;16.432;2022-12-07T10:09:11;5.95;;;3.88;;
4021;SDS011;2025;48.260;16.432;2022-12-07T10:14:26;7.45;;;4.22;;
4021;SDS011;2025;48.260;16.432;2022-12-07T10:16:54;6.22;;;3.92;;
4021;SDS011;2025;48.260;16.432;2022-12-07T10:19:23;7.25;;;4.22;;
4021;SDS011;2025;48.260;16.432;2022-12-07T10:22:01;6.47;;;4.60;;
4021;SDS011;2025;48.260;16.432;2022-12-07T10:24:30;6.95;;;3.97;;
4021;SDS011;2025;48.260;16.432;2022-12-07T10:26:57;7.55;;;3.70;;
4021;SDS011;2025;48.260;16.432;2022-12-07T10:29:28;7.15;;;3.58;;
4021;SDS011;2025;48.260;16.432;2022-12-07T10:31:57;7.30;;;4.60;;
4021;SDS011;2025;48.260;16.432;2022-12-07T10:34:27;7.22;;;5.72;;
4021;SDS011;2025;48.260;16.432;2022-12-07T10:37:06;7.07;;;4.80;;
4021;SDS011;2025;48.260;16.432;2022-12-07T10:39:41;6.90;;;4.22;;
4021;SDS011;2025;48.260;16.432;2022-12-07T10:42:15;5.60;;;3.83;;
4021;SDS011;2025;48.260;16.432;2022-12-07T10:44:45;6.75;;;4.22;;
4021;SDS011;2025;48.260;16.432;2022-12-07T10:47:22;7.93;;;4.03;;
4021;SDS011;2025;48.260;16.432;2022-12-07T10:50:37;7.10;;;3.55;;
4021;SDS011;2025;48.260;16.432;2022-12-07T10:53:18;6.07;;;3.35;;
4021;SDS011;2025;48.260;16.432;2022-12-07T10:56:05;6.75;;;3.95;;
4021;SDS011;2025;48.260;16.432;2022-12-07T10:58:52;6.70;;;3.58;;
4021;SDS011;2025;48.260;16.432;2022-12-07T11:01:33;5.68;;;3.28;;
4021;SDS011;2025;48.260;16.432;2022-12-07T11:04:10;5.22;;;3.03;;
4021;SDS011;2025;48.260;16.432;2022-12-07T11:06:48;6.32;;;3.58;;
4021;SDS011;2025;48.260;16.432;2022-12-07T11:09:28;4.95;;;3.08;;
4021;SDS011;2025;48.260;16.432;2022-12-07T11:12:08;5.90;;;3.58;;
4021;SDS011;2025;48.260;16.432;2022-12-07T11:14:41;5.18;;;3.55;;
4021;SDS011;2025;48.260;16.432;2022-12-07T11:17:20;7.28;;;3.17;;
4021;SDS011;2025;48.260;16.432;2022-12-07T11:20:00;6.78;;;3.50;;
4021;SDS011;2025;48.260;16.432;2022-12-07T11:22:34;4.57;;;2.33;;
4021;SDS011;2025;48.260;16.432;2022-12-07T11:25:14;6.57;;;4.10;;
4021;SDS011;2025;48.260;16.432;2022-12-07T11:27:47;5.82;;;2.97;;
4021;SDS011;2025;48.260;16.432;2022-12-07T11:30:21;5.22;;;2.88;;
4021;SDS011;2025;48.260;16.432;2022-12-07T11:33:03;5.18;;;3.33;;
4021;SDS011;2025;48.260;16.432;2022-12-07T11:35:43;4.88;;;2.45;;
4021;SDS011;2025;48.260;16.432;2022-12-07T11:38:16;6.57;;;3.45;;
4021;SDS011;2025;48.260;16.432;2022-12-07T11:40:47;5.38;;;3.33;;
4021;SDS011;2025;48.260;16.432;2022-12-07T11:43:19;6.85;;;2.67;;
4021;SDS011;2025;48.260;16.432;2022-12-07T11:45:54;6.45;;;3.88;;
4021;SDS011;2025;48.260;16.432;2022-12-07T11:48:30;5.18;;;3.63;;
4021;SDS011;2025;48.260;16.432;2022-12-07T11:51:02;6.43;;;3.90;;
4021;SDS011;2025;48.260;16.432;2022-12-07T11:53:31;7.00;;;3.63;;
4021;SDS011;2025;48.260;16.432;2022-12-07T11:56:03;6.55;;;4.00;;
4021;SDS011;2025;48.260;16.432;2022-12-07T11:58:37;7.40;;;4.07;;
4021;SDS011;2025;48.260;16.432;2022-12-07T12:01:34;7.07;;;5.10;;
4021;SDS011;2025;48.260;16.432;2022-12-07T12:04:16;6.85;;;4.18;;
4021;SDS011;2025;48.260;16.432;2022-12-07T12:06:51;8.57;;;3.63;;
4021;SDS011;2025;48.260;16.432;2022-12-07T12:09:20;6.57;;;3.85;;
4021;SDS011;2025;48.260;16.432;2022-12-07T12:20:16;6.82;;;3.80;;
4021;SDS011;2025;48.260;16.432;2022-12-07T12:22:49;6.32;;;3.22;;
4021;SDS011;2025;48.260;16.432;2022-12-07T12:25:21;6.25;;;2.08;;
4021;SDS011;2025;48.260;16.432;2022-12-07T12:27:51;5.72;;;3.42;;
4021;SDS011;2025;48.260;16.432;2022-12-07T12:30:25;5.68;;;2.75;;
4021;SDS011;2025;48.260;16.432;2022-12-07T12:33:01;5.90;;;2.97;;
4021;SDS011;2025;48.260;16.432;2022-12-07T12:35:32;5.85;;;3.50;;
4021;SDS011;2025;48.260;16.432;2022-12-07T12:38:21;6.43;;;4.13;;
4021;SDS011;2025;48.260;16.432;2022-12-07T12:40:53;5.90;;;3.35;;
4021;SDS011;2025;48.260;16.432;2022-12-07T12:55:15;5.47;;;3.33;;
4021;SDS011;2025;48.260;16.432;2022-12-07T12:57:46;7.03;;;4.15;;
4021;SDS011;2025;48.260;16.432;2022-12-07T13:00:34;6.65;;;3.70;;
4021;SDS011;2025;48.260;16.432;2022-12-07T13:03:01;6.82;;;3.10;;
4021;SDS011;2025;48.260;16.432;2022-12-07T13:05:29;5.40;;;3.50;;
4021;SDS011;2025;48.260;16.432;2022-12-07T13:07:57;6.25;;;3.83;;
4021;SDS011;2025;48.260;16.432;2022-12-07T13:10:44;6.85;;;4.45;;
4021;SDS011;2025;48.260;16.432;2022-12-07T13:13:34;6.05;;;4.10;;
4021;SDS011;2025;48.260;16.432;2022-12-07T13:22:35;7.68;;;4.65;;
4021;SDS011;2025;48.260;16.432;2022-12-07T13:25:07;7.10;;;3.65;;
4021;SDS011;2025;48.260;16.432;2022-12-07T13:27:39;6.55;;;3.83;;
4021;SDS011;2025;48.260;16.432;2022-12-07T13:30:13;6.57;;;4.63;;
4021;SDS011;2025;48.260;16.432;2022-12-07T13:32:41;5.72;;;3.72;;
4021;SDS011;2025;48.260;16.432;2022-12-07T13:35:27;8.30;;;4.18;;
4021;SDS011;2025;48.260;16.432;2022-12-07T13:37:56;6.90;;;4.18;;
4021;SDS011;2025;48.260;16.432;2022-12-07T13:40:23;7.07;;;3.97;;
4021;SDS011;2025;48.260;16.432;2022-12-07T13:42:58;6.82;;;4.03;;
4021;SDS011;2025;48.260;16.432;2022-12-07T13:45:26;6.72;;;4.07;;
4021;SDS011;2025;48.260;16.432;2022-12-07T13:48:08;8.35;;;7.03;;
4021;SDS011;2025;48.260;16.432;2022-12-07T13:50:40;6.70;;;4.03;;
4021;SDS011;2025;48.260;16.432;2022-12-07T13:53:11;8.15;;;4.72;;
4021;SDS011;2025;48.260;16.432;2022-12-07T13:55:44;6.82;;;4.47;;
4021;SDS011;2025;48.260;16.432;2022-12-07T13:58:14;6.78;;;4.07;;
4021;SDS011;2025;48.260;16.432;2022-12-07T14:00:41;7.97;;;3.95;;
4021;SDS011;2025;48.260;16.432;2022-12-07T14:03:29;8.07;;;4.43;;
4021;SDS011;2025;48.260;16.432;2022-12-07T14:06:16;8.63;;;4.28;;
4021;SDS011;2025;48.260;16.432;2022-12-07T14:08:46;8.07;;;5.50;;
4021;SDS011;2025;48.260;16.432;2022-12-07T14:11:15;8.05;;;4.47;;
4021;SDS011;2025;48.260;16.432;2022-12-07T14:13:50;7.97;;;4.63;;
4021;SDS011;2025;48.260;16.432;2022-12-07T14:16:24;7.50;;;3.70;;
4021;SDS011;2025;48.260;16.432;2022-12-07T14:18:53;6.22;;;3.78;;
4021;SDS011;2025;48.260;16.432;2022-12-07T14:21:22;8.50;;;4.00;;
4021;SDS011;2025;48.260;16.432;2022-12-07T14:24:10;8.15;;;4.50;;
4021;SDS011;2025;48.260;16.432;2022-12-07T14:26:41;8.52;;;3.55;;
4021;SDS011;2025;48.260;16.432;2022-12-07T14:32:15;8.05;;;4.05;;
4021;SDS011;2025;48.260;16.432;2022-12-07T14:34:54;8.38;;;4.25;;
4021;SDS011;2025;48.260;16.432;2022-12-07T14:37:23;9.13;;;5.00;;
4021;SDS011;2025;48.260;16.432;2022-12-07T14:39:50;9.25;;;5.28;;
4021;SDS011;2025;48.260;16.432;2022-12-07T14:42:17;8.40;;;4.45;;
4021;SDS011;2025;48.260;16.432;2022-12-07T14:44:46;8.10;;;5.30;;
4021;SDS011;2025;48.260;16.432;2022-12-07T14:47:13;8.63;;;5.85;;
4021;SDS011;2025;48.260;16.432;2022-12-07T14:49:40;8.57;;;5.15;;
4021;SDS011;2025;48.260;16.432;2022-12-07T14:52:08;9.48;;;5.28;;
4021;SDS011;2025;48.260;16.432;2022-12-07T14:54:39;8.52;;;5.18;;
4021;SDS011;2025;48.260;16.432;2022-12-07T14:57:08;10.30;;;4.82;;
4021;SDS011;2025;48.260;16.432;2022-12-07T14:59:35;9.38;;;5.07;;
4021;SDS011;2025;48.260;16.432;2022-12-07T15:02:03;9.30;;;3.88;;
4021;SDS011;2025;48.260;16.432;2022-12-07T15:04:30;11.55;;;5.65;;
4021;SDS011;2025;48.260;16.432;2022-12-07T15:06:58;10.13;;;5.78;;
4021;SDS011;2025;48.260;16.432;2022-12-07T15:09:26;8.15;;;4.45;;
4021;SDS011;2025;48.260;16.432;2022-12-07T15:11:53;8.57;;;4.05;;
4021;SDS011;2025;48.260;16.432;2022-12-07T15:14:20;10.98;;;5.05;;
4021;SDS011;2025;48.260;16.432;2022-12-07T15:16:47;10.15;;;4.75;;
4021;SDS011;2025;48.260;16.432;2022-12-07T15:19:17;7.65;;;4.63;;
4021;SDS011;2025;48.260;16.432;2022-12-07T15:21:46;10.57;;;6.30;;
4021;SDS011;2025;48.260;16.432;2022-12-07T15:24:13;8.77;;;4.90;;
4021;SDS011;2025;48.260;16.432;2022-12-07T15:26:40;9.25;;;5.15;;
4021;SDS011;2025;48.260;16.432;2022-12-07T15:29:07;8.80;;;5.55;;
4021;SDS011;2025;48.260;16.432;2022-12-07T15:31:34;10.50;;;5.55;;
4021;SDS011;2025;48.260;16.432;2022-12-07T15:34:02;9.82;;;5.63;;
4021;SDS011;2025;48.260;16.432;2022-12-07T15:36:31;10.55;;;5.82;;
4021;SDS011;2025;48.260;16.432;2022-12-07T15:39:00;10.77;;;5.82;;
4021;SDS011;2025;48.260;16.432;2022-12-07T15:41:27;9.27;;;5.45;;
4021;SDS011;2025;48.260;16.432;2022-12-07T15:43:54;10.25;;;5.75;;
4021;SDS011;2025;48.260;16.432;2022-12-07T15:46:39;8.60;;;5.07;;
4021;SDS011;2025;48.260;16.432;2022-12-07T15:49:09;9.80;;;6.03;;
4021;SDS011;2025;48.260;16.432;2022-12-07T15:51:39;9.20;;;5.28;;